sensor_id;sensor_type;location;lat;lon;timestamp;pressure;altitude;pressure_sealevel;temperature;humidity
59767;BME280;46248;58.364;25.582;2023-05-23T00:02:46;101005.44;;;10.71;75.90
59767;BME280;46248;58.364;25.582;2023-05-23T00:06:10;100997.97;;;10.62;75.54
59767;BME280;46248;58.364;25.582;2023-05-23T00:09:34;100998.88;;;10.61;76.83
59767;BME280;46248;58.364;25.582;2023-05-23T00:12:56;101008.63;;;10.58;77.79
59767;BME280;46248;58.364;25.582;2023-05-23T00:16:18;101002.69;;;10.54;79.16
59767;BME280;46248;58.364;25.582;2023-05-23T00:19:41;100993.63;;;10.41;79.72
59767;BME280;46248;58.364;25.582;2023-05-23T00:23:06;100991.94;;;10.40;80.11
59767;BME280;46248;58.364;25.582;2023-05-23T00:26:29;100999.00;;;10.38;81.15
59767;BME280;46248;58.364;25.582;2023-05-23T00:29:51;100988.19;;;10.25;81.78
59767;BME280;46248;58.364;25.582;2023-05-23T00:33:13;100990.28;;;10.17;78.24
59767;BME280;46248;58.364;25.582;2023-05-23T00:36:35;100998.13;;;10.17;79.06
59767;BME280;46248;58.364;25.582;2023-05-23T00:39:58;100980.25;;;10.06;78.98
59767;BME280;46248;58.364;25.582;2023-05-23T00:43:21;100989.66;;;10.10;78.28
59767;BME280;46248;58.364;25.582;2023-05-23T00:46:44;100964.28;;;9.92;78.54
59767;BME280;46248;58.364;25.582;2023-05-23T00:50:10;100980.69;;;9.95;77.47
59767;BME280;46248;58.364;25.582;2023-05-23T00:53:34;100992.06;;;9.94;77.75
59767;BME280;46248;58.364;25.582;2023-05-23T00:56:58;100986.31;;;9.86;77.36
59767;BME280;46248;58.364;25.582;2023-05-23T01:00:21;100992.66;;;9.80;76.52
59767;BME280;46248;58.364;25.582;2023-05-23T01:03:44;100990.09;;;9.79;79.65
59767;BME280;46248;58.364;25.582;2023-05-23T01:07:08;100999.81;;;9.75;80.71
59767;BME280;46248;58.364;25.582;2023-05-23T01:10:30;100996.38;;;9.75;82.27
59767;BME280;46248;58.364;25.582;2023-05-23T01:13:58;100971.06;;;9.53;82.89
59767;BME280;46248;58.364;25.582;2023-05-23T01:17:25;100994.16;;;9.64;82.37
59767;BME280;46248;58.364;25.582;2023-05-23T01:20:51;100995.97;;;9.62;83.90
59767;BME280;46248;58.364;25.582;2023-05-23T01:24:33;100990.22;;;9.54;85.99
59767;BME280;46248;58.364;25.582;2023-05-23T01:28:00;100988.69;;;9.48;86.64
59767;BME280;46248;58.364;25.582;2023-05-23T01:31:26;100994.09;;;9.44;86.95
59767;BME280;46248;58.364;25.582;2023-05-23T01:34:52;100996.94;;;9.37;86.22
59767;BME280;46248;58.364;25.582;2023-05-23T01:38:14;100998.78;;;9.35;85.15
59767;BME280;46248;58.364;25.582;2023-05-23T01:41:36;100993.56;;;9.35;84.70
59767;BME280;46248;58.364;25.582;2023-05-23T01:44:59;100980.03;;;9.24;84.36
59767;BME280;46248;58.364;25.582;2023-05-23T01:48:22;100995.53;;;9.29;83.29
59767;BME280;46248;58.364;25.582;2023-05-23T01:51:46;100965.69;;;9.12;82.42
59767;BME280;46248;58.364;25.582;2023-05-23T01:55:09;100993.00;;;9.27;81.67
59767;BME280;46248;58.364;25.582;2023-05-23T01:58:31;100951.94;;;9.07;82.28
59767;BME280;46248;58.364;25.582;2023-05-23T02:01:54;100953.59;;;9.10;82.15
59767;BME280;46248;58.364;25.582;2023-05-23T02:05:17;100984.31;;;9.27;84.14
59767;BME280;46248;58.364;25.582;2023-05-23T02:08:38;100978.59;;;9.17;82.74
59767;BME280;46248;58.364;25.582;2023-05-23T02:12:00;100987.16;;;9.21;82.03
59767;BME280;46248;58.364;25.582;2023-05-23T02:15:23;100977.59;;;9.20;82.19
59767;BME280;46248;58.364;25.582;2023-05-23T02:18:46;100988.00;;;9.21;82.04
59767;BME280;46248;58.364;25.582;2023-05-23T02:22:09;100982.03;;;9.17;83.39
59767;BME280;46248;58.364;25.582;2023-05-23T02:25:31;100983.81;;;9.17;83.51
59767;BME280;46248;58.364;25.582;2023-05-23T02:28:52;100980.41;;;9.15;82.06
59767;BME280;46248;58.364;25.582;2023-05-23T02:32:14;100975.84;;;9.20;81.63
59767;BME280;46248;58.364;25.582;2023-05-23T02:35:38;100978.34;;;9.23;82.32
59767;BME280;46248;58.364;25.582;2023-05-23T02:39:00;100978.16;;;9.28;82.13
59767;BME280;46248;58.364;25.582;2023-05-23T02:42:22;100958.28;;;9.24;83.37
59767;BME280;46248;58.364;25.582;2023-05-23T02:45:44;100971.72;;;9.36;84.19
59767;BME280;46248;58.364;25.582;2023-05-23T02:49:06;100961.22;;;9.38;84.56
59767;BME280;46248;58.364;25.582;2023-05-23T02:52:31;100969.56;;;9.48;85.29
59767;BME280;46248;58.364;25.582;2023-05-23T02:55:53;100974.16;;;9.63;84.99
59767;BME280;46248;58.364;25.582;2023-05-23T02:59:15;100967.78;;;9.70;85.57
59767;BME280;46248;58.364;25.582;2023-05-23T03:02:37;100970.09;;;9.78;86.67
59767;BME280;46248;58.364;25.582;2023-05-23T03:05:59;100971.41;;;9.88;87.87
59767;BME280;46248;58.364;25.582;2023-05-23T03:09:22;100970.72;;;10.05;87.67
59767;BME280;46248;58.364;25.582;2023-05-23T03:12:45;100982.59;;;10.34;87.09
59767;BME280;46248;58.364;25.582;2023-05-23T03:16:07;100969.16;;;10.62;86.33
59767;BME280;46248;58.364;25.582;2023-05-23T03:19:29;100979.69;;;11.00;85.37
59767;BME280;46248;58.364;25.582;2023-05-23T03:22:55;100969.25;;;11.36;84.64
59767;BME280;46248;58.364;25.582;2023-05-23T03:26:18;100969.41;;;11.69;83.43
59767;BME280;46248;58.364;25.582;2023-05-23T03:29:41;100973.13;;;12.02;82.33
59767;BME280;46248;58.364;25.582;2023-05-23T03:33:03;100967.09;;;12.34;81.89
59767;BME280;46248;58.364;25.582;2023-05-23T03:36:26;100963.94;;;12.61;80.61
59767;BME280;46248;58.364;25.582;2023-05-23T03:39:48;100965.97;;;12.89;80.46
59767;BME280;46248;58.364;25.582;2023-05-23T03:43:12;100973.69;;;13.24;78.48
59767;BME280;46248;58.364;25.582;2023-05-23T03:46:34;100955.91;;;13.45;77.27
59767;BME280;46248;58.364;25.582;2023-05-23T03:49:57;100973.34;;;13.78;76.24
59767;BME280;46248;58.364;25.582;2023-05-23T03:53:19;100975.50;;;14.01;75.07
59767;BME280;46248;58.364;25.582;2023-05-23T03:56:41;100975.16;;;14.21;74.18
59767;BME280;46248;58.364;25.582;2023-05-23T04:00:06;100956.66;;;14.23;72.92
59767;BME280;46248;58.364;25.582;2023-05-23T04:03:31;100977.91;;;14.64;72.52
59767;BME280;46248;58.364;25.582;2023-05-23T04:06:53;100975.53;;;14.88;71.62
59767;BME280;46248;58.364;25.582;2023-05-23T04:10:16;100980.50;;;15.22;70.70
59767;BME280;46248;58.364;25.582;2023-05-23T04:13:38;100973.69;;;15.46;69.57
59767;BME280;46248;58.364;25.582;2023-05-23T04:17:01;100968.03;;;15.65;69.11
59767;BME280;46248;58.364;25.582;2023-05-23T04:20:23;100969.38;;;15.85;68.24
59767;BME280;46248;58.364;25.582;2023-05-23T04:23:46;100966.69;;;15.99;67.69
59767;BME280;46248;58.364;25.582;2023-05-23T04:27:08;100969.66;;;16.08;66.96
59767;BME280;46248;58.364;25.582;2023-05-23T04:30:30;100953.19;;;16.04;66.90
59767;BME280;46248;58.364;25.582;2023-05-23T04:33:54;100959.44;;;16.29;66.48
59767;BME280;46248;58.364;25.582;2023-05-23T04:37:17;100960.06;;;16.58;65.56
59767;BME280;46248;58.364;25.582;2023-05-23T04:40:41;100970.03;;;16.80;64.40
59767;BME280;46248;58.364;25.582;2023-05-23T04:47:19;100968.22;;;16.93;64.00
59767;BME280;46248;58.364;25.582;2023-05-23T04:50:43;100964.06;;;17.02;63.63
59767;BME280;46248;58.364;25.582;2023-05-23T04:54:06;100961.78;;;17.21;63.54
59767;BME280;46248;58.364;25.582;2023-05-23T04:57:29;100964.47;;;17.45;62.88
59767;BME280;46248;58.364;25.582;2023-05-23T05:10:07;100963.59;;;17.81;60.86
59767;BME280;46248;58.364;25.582;2023-05-23T05:13:36;100962.81;;;17.92;60.06
59767;BME280;46248;58.364;25.582;2023-05-23T05:16:58;100964.63;;;18.03;59.94
59767;BME280;46248;58.364;25.582;2023-05-23T05:20:22;100968.63;;;18.08;59.69
59767;BME280;46248;58.364;25.582;2023-05-23T05:23:44;100963.59;;;18.17;59.47
59767;BME280;46248;58.364;25.582;2023-05-23T05:27:07;100961.06;;;18.26;58.61
59767;BME280;46248;58.364;25.582;2023-05-23T05:30:31;100963.88;;;18.47;58.87
59767;BME280;46248;58.364;25.582;2023-05-23T05:33:54;100960.09;;;18.74;57.88
59767;BME280;46248;58.364;25.582;2023-05-23T05:37:16;100959.38;;;18.94;56.97
59767;BME280;46248;58.364;25.582;2023-05-23T05:40:38;100955.09;;;19.03;56.64
59767;BME280;46248;58.364;25.582;2023-05-23T05:44:02;100955.69;;;19.18;56.04
59767;BME280;46248;58.364;25.582;2023-05-23T05:47:24;100953.66;;;19.21;55.74
59767;BME280;46248;58.364;25.582;2023-05-23T05:50:46;100945.28;;;19.37;55.02
59767;BME280;46248;58.364;25.582;2023-05-23T05:54:08;100946.53;;;19.54;54.71
59767;BME280;46248;58.364;25.582;2023-05-23T05:57:30;100948.44;;;19.75;54.27
59767;BME280;46248;58.364;25.582;2023-05-23T06:00:53;100946.63;;;19.96;53.58
59767;BME280;46248;58.364;25.582;2023-05-23T06:04:16;100944.41;;;20.12;52.62
59767;BME280;46248;58.364;25.582;2023-05-23T06:07:37;100949.63;;;20.24;52.41
59767;BME280;46248;58.364;25.582;2023-05-23T06:11:00;100949.28;;;20.38;51.51
59767;BME280;46248;58.364;25.582;2023-05-23T06:14:21;100952.25;;;20.45;50.33
59767;BME280;46248;58.364;25.582;2023-05-23T06:17:45;100947.41;;;20.50;49.46
59767;BME280;46248;58.364;25.582;2023-05-23T06:21:08;100956.44;;;20.58;49.17
59767;BME280;46248;58.364;25.582;2023-05-23T06:24:29;100958.75;;;20.73;48.79
59767;BME280;46248;58.364;25.582;2023-05-23T06:27:51;100952.13;;;20.67;46.75
59767;BME280;46248;58.364;25.582;2023-05-23T06:31:13;100963.16;;;20.63;47.51
59767;BME280;46248;58.364;25.582;2023-05-23T06:34:36;100946.97;;;20.75;47.44
59767;BME280;46248;58.364;25.582;2023-05-23T06:37:58;100955.59;;;20.98;47.54
59767;BME280;46248;58.364;25.582;2023-05-23T06:41:20;100957.19;;;21.20;45.92
59767;BME280;46248;58.364;25.582;2023-05-23T06:44:42;100956.53;;;21.18;45.18
59767;BME280;46248;58.364;25.582;2023-05-23T06:48:04;100954.41;;;21.22;45.25
59767;BME280;46248;58.364;25.582;2023-05-23T06:51:27;100951.88;;;21.30;43.54
59767;BME280;46248;58.364;25.582;2023-05-23T06:54:50;100950.78;;;21.33;43.80
59767;BME280;46248;58.364;25.582;2023-05-23T06:58:12;100954.47;;;21.41;44.26
59767;BME280;46248;58.364;25.582;2023-05-23T07:01:34;100954.75;;;21.48;43.83
59767;BME280;46248;58.364;25.582;2023-05-23T07:04:56;100941.59;;;21.56;41.43
59767;BME280;46248;58.364;25.582;2023-05-23T07:08:19;100947.03;;;21.45;42.80
59767;BME280;46248;58.364;25.582;2023-05-23T07:11:42;100946.09;;;21.56;42.89
59767;BME280;46248;58.364;25.582;2023-05-23T07:15:04;100950.72;;;21.73;42.13
59767;BME280;46248;58.364;25.582;2023-05-23T07:18:26;100943.56;;;21.64;42.51
59767;BME280;46248;58.364;25.582;2023-05-23T07:21:48;100940.19;;;21.71;40.69
59767;BME280;46248;58.364;25.582;2023-05-23T07:25:11;100947.63;;;21.78;41.92
59767;BME280;46248;58.364;25.582;2023-05-23T07:28:33;100936.66;;;21.90;40.45
59767;BME280;46248;58.364;25.582;2023-05-23T07:31:55;100942.72;;;21.92;41.32
59767;BME280;46248;58.364;25.582;2023-05-23T07:35:18;100937.78;;;22.07;40.68
59767;BME280;46248;58.364;25.582;2023-05-23T07:38:43;100932.03;;;22.02;39.79
59767;BME280;46248;58.364;25.582;2023-05-23T07:42:07;100930.31;;;22.11;40.12
59767;BME280;46248;58.364;25.582;2023-05-23T07:45:28;100930.03;;;22.24;39.96
59767;BME280;46248;58.364;25.582;2023-05-23T07:48:50;100931.56;;;22.36;40.00
59767;BME280;46248;58.364;25.582;2023-05-23T07:52:12;100933.91;;;22.49;39.88
59767;BME280;46248;58.364;25.582;2023-05-23T07:55:34;100928.88;;;22.46;39.17
59767;BME280;46248;58.364;25.582;2023-05-23T07:58:57;100930.53;;;22.47;38.16
59767;BME280;46248;58.364;25.582;2023-05-23T08:02:19;100936.31;;;22.52;38.05
59767;BME280;46248;58.364;25.582;2023-05-23T08:05:41;100930.16;;;22.69;38.57
59767;BME280;46248;58.364;25.582;2023-05-23T08:09:03;100930.38;;;22.85;37.51
59767;BME280;46248;58.364;25.582;2023-05-23T08:12:25;100929.78;;;22.92;37.75
59767;BME280;46248;58.364;25.582;2023-05-23T08:15:49;100923.63;;;22.91;38.62
59767;BME280;46248;58.364;25.582;2023-05-23T08:19:11;100926.41;;;22.99;38.62
59767;BME280;46248;58.364;25.582;2023-05-23T08:22:33;100921.31;;;23.06;37.68
59767;BME280;46248;58.364;25.582;2023-05-23T08:25:55;100926.19;;;23.11;37.91
59767;BME280;46248;58.364;25.582;2023-05-23T08:29:17;100920.16;;;23.08;37.76
59767;BME280;46248;58.364;25.582;2023-05-23T08:32:41;100922.53;;;23.12;38.11
59767;BME280;46248;58.364;25.582;2023-05-23T08:36:03;100918.19;;;23.11;37.12
59767;BME280;46248;58.364;25.582;2023-05-23T08:39:25;100923.69;;;23.09;37.44
59767;BME280;46248;58.364;25.582;2023-05-23T08:42:47;100918.91;;;22.75;37.95
59767;BME280;46248;58.364;25.582;2023-05-23T08:49:32;100919.25;;;22.62;37.98
59767;BME280;46248;58.364;25.582;2023-05-23T08:52:55;100919.91;;;22.74;38.07
59767;BME280;46248;58.364;25.582;2023-05-23T08:56:18;100920.00;;;22.82;37.42
59767;BME280;46248;58.364;25.582;2023-05-23T08:59:40;100917.63;;;22.79;37.85
59767;BME280;46248;58.364;25.582;2023-05-23T09:03:02;100911.09;;;22.64;37.29
59767;BME280;46248;58.364;25.582;2023-05-23T09:06:25;100914.53;;;22.47;36.20
59767;BME280;46248;58.364;25.582;2023-05-23T09:09:47;100908.41;;;22.27;36.80
59767;BME280;46248;58.364;25.582;2023-05-23T09:13:09;100912.09;;;21.96;37.48
59767;BME280;46248;58.364;25.582;2023-05-23T09:16:32;100908.19;;;21.81;38.45
59767;BME280;46248;58.364;25.582;2023-05-23T09:19:54;100912.81;;;21.89;39.14
59767;BME280;46248;58.364;25.582;2023-05-23T09:23:18;100907.47;;;21.99;36.36
59767;BME280;46248;58.364;25.582;2023-05-23T09:26:40;100915.22;;;21.92;37.60
59767;BME280;46248;58.364;25.582;2023-05-23T09:30:06;100905.66;;;21.89;37.47
59767;BME280;46248;58.364;25.582;2023-05-23T09:33:34;100905.38;;;21.92;37.45
59767;BME280;46248;58.364;25.582;2023-05-23T09:36:56;100901.72;;;21.93;37.73
59767;BME280;46248;58.364;25.582;2023-05-23T09:40:19;100903.25;;;21.96;38.11
59767;BME280;46248;58.364;25.582;2023-05-23T09:43:49;100909.41;;;22.26;38.67
59767;BME280;46248;58.364;25.582;2023-05-23T09:47:11;100908.06;;;22.49;36.93
59767;BME280;46248;58.364;25.582;2023-05-23T09:50:33;100910.84;;;22.57;36.72
59767;BME280;46248;58.364;25.582;2023-05-23T09:53:55;100909.22;;;22.74;35.73
59767;BME280;46248;58.364;25.582;2023-05-23T09:57:18;100908.31;;;22.83;35.58
59767;BME280;46248;58.364;25.582;2023-05-23T10:00:44;100913.16;;;23.07;34.95
59767;BME280;46248;58.364;25.582;2023-05-23T10:04:08;100902.94;;;23.21;36.24
59767;BME280;46248;58.364;25.582;2023-05-23T10:07:30;100904.63;;;23.22;35.15
59767;BME280;46248;58.364;25.582;2023-05-23T10:14:57;100899.69;;;22.99;35.29
59767;BME280;46248;58.364;25.582;2023-05-23T10:18:25;100905.06;;;22.90;35.53
59767;BME280;46248;58.364;25.582;2023-05-23T10:21:55;100909.16;;;22.84;35.36
59767;BME280;46248;58.364;25.582;2023-05-23T10:25:19;100914.81;;;22.81;35.70
59767;BME280;46248;58.364;25.582;2023-05-23T10:33:25;100913.00;;;22.81;35.71
59767;BME280;46248;58.364;25.582;2023-05-23T10:36:56;100910.41;;;22.90;36.17
59767;BME280;46248;58.364;25.582;2023-05-23T10:44:43;100904.09;;;23.36;34.52
59767;BME280;46248;58.364;25.582;2023-05-23T10:48:19;100899.06;;;23.33;34.73
59767;BME280;46248;58.364;25.582;2023-05-23T10:55:15;100909.06;;;23.31;35.68
59767;BME280;46248;58.364;25.582;2023-05-23T10:58:38;100893.78;;;23.41;36.05
59767;BME280;46248;58.364;25.582;2023-05-23T11:02:00;100892.31;;;23.65;34.89
59767;BME280;46248;58.364;25.582;2023-05-23T11:05:24;100904.91;;;23.90;35.14
59767;BME280;46248;58.364;25.582;2023-05-23T11:08:47;100902.41;;;23.89;35.39
59767;BME280;46248;58.364;25.582;2023-05-23T11:12:10;100900.66;;;23.44;36.23
59767;BME280;46248;58.364;25.582;2023-05-23T11:15:40;100899.38;;;23.02;36.74
59767;BME280;46248;58.364;25.582;2023-05-23T11:19:22;100906.25;;;22.77;36.94
59767;BME280;46248;58.364;25.582;2023-05-23T11:22:52;100905.91;;;22.62;37.77
59767;BME280;46248;58.364;25.582;2023-05-23T11:26:36;100912.56;;;22.49;37.43
59767;BME280;46248;58.364;25.582;2023-05-23T11:30:03;100903.91;;;22.37;37.51
59767;BME280;46248;58.364;25.582;2023-05-23T11:33:29;100907.56;;;22.26;38.02
59767;BME280;46248;58.364;25.582;2023-05-23T11:36:54;100903.75;;;22.38;38.40
59767;BME280;46248;58.364;25.582;2023-05-23T11:40:27;100896.63;;;22.67;37.82
59767;BME280;46248;58.364;25.582;2023-05-23T11:43:50;100897.22;;;22.88;36.51
59767;BME280;46248;58.364;25.582;2023-05-23T11:47:14;100886.66;;;22.86;35.46
59767;BME280;46248;58.364;25.582;2023-05-23T11:50:43;100889.41;;;23.04;35.81
59767;BME280;46248;58.364;25.582;2023-05-23T11:54:06;100890.94;;;23.07;36.38
59767;BME280;46248;58.364;25.582;2023-05-23T11:57:28;100894.22;;;23.01;36.42
59767;BME280;46248;58.364;25.582;2023-05-23T12:00:51;100903.22;;;23.00;36.70
59767;BME280;46248;58.364;25.582;2023-05-23T12:04:15;100889.88;;;22.90;36.71
59767;BME280;46248;58.364;25.582;2023-05-23T12:07:39;100907.69;;;22.99;36.76
59767;BME280;46248;58.364;25.582;2023-05-23T12:11:01;100906.25;;;23.05;37.21
59767;BME280;46248;58.364;25.582;2023-05-23T12:14:27;100905.53;;;23.13;36.68
59767;BME280;46248;58.364;25.582;2023-05-23T12:17:49;100893.09;;;23.21;35.88
59767;BME280;46248;58.364;25.582;2023-05-23T12:21:15;100894.69;;;23.32;35.95
59767;BME280;46248;58.364;25.582;2023-05-23T12:24:45;100894.25;;;23.37;34.95
59767;BME280;46248;58.364;25.582;2023-05-23T12:28:08;100891.63;;;23.45;35.33
59767;BME280;46248;58.364;25.582;2023-05-23T12:31:33;100889.25;;;23.60;35.59
59767;BME280;46248;58.364;25.582;2023-05-23T12:34:55;100904.25;;;23.70;35.14
59767;BME280;46248;58.364;25.582;2023-05-23T12:38:18;100892.94;;;23.76;35.12
59767;BME280;46248;58.364;25.582;2023-05-23T12:41:43;100902.50;;;23.79;34.99
59767;BME280;46248;58.364;25.582;2023-05-23T12:45:06;100905.31;;;23.77;35.31
59767;BME280;46248;58.364;25.582;2023-05-23T12:48:28;100903.44;;;23.70;35.17
59767;BME280;46248;58.364;25.582;2023-05-23T12:51:50;100907.13;;;23.59;35.43
59767;BME280;46248;58.364;25.582;2023-05-23T12:55:14;100910.41;;;23.53;35.99
59767;BME280;46248;58.364;25.582;2023-05-23T12:58:36;100910.66;;;23.42;36.12
59767;BME280;46248;58.364;25.582;2023-05-23T13:01:58;100908.13;;;23.22;36.38
59767;BME280;46248;58.364;25.582;2023-05-23T13:05:21;100915.44;;;22.93;36.55
59767;BME280;46248;58.364;25.582;2023-05-23T13:08:43;100915.31;;;22.67;37.83
59767;BME280;46248;58.364;25.582;2023-05-23T13:12:07;100919.59;;;22.50;38.74
59767;BME280;46248;58.364;25.582;2023-05-23T13:15:29;100915.00;;;22.32;38.55
59767;BME280;46248;58.364;25.582;2023-05-23T13:18:51;100917.97;;;22.29;38.71
59767;BME280;46248;58.364;25.582;2023-05-23T13:22:13;100916.56;;;22.25;38.69
59767;BME280;46248;58.364;25.582;2023-05-23T13:25:35;100914.91;;;22.24;38.96
59767;BME280;46248;58.364;25.582;2023-05-23T13:28:59;100903.75;;;22.38;38.89
59767;BME280;46248;58.364;25.582;2023-05-23T13:32:21;100898.94;;;22.52;38.10
59767;BME280;46248;58.364;25.582;2023-05-23T13:35:43;100902.50;;;22.70;38.37
59767;BME280;46248;58.364;25.582;2023-05-23T13:39:05;100904.50;;;22.96;38.66
59767;BME280;46248;58.364;25.582;2023-05-23T13:42:28;100896.75;;;23.20;37.62
59767;BME280;46248;58.364;25.582;2023-05-23T13:45:51;100898.66;;;23.28;37.24
59767;BME280;46248;58.364;25.582;2023-05-23T13:49:13;100902.50;;;23.43;37.04
59767;BME280;46248;58.364;25.582;2023-05-23T13:52:35;100895.09;;;23.55;37.46
59767;BME280;46248;58.364;25.582;2023-05-23T13:55:59;100895.38;;;23.52;36.88
59767;BME280;46248;58.364;25.582;2023-05-23T13:59:21;100889.81;;;23.63;35.80
59767;BME280;46248;58.364;25.582;2023-05-23T14:02:44;100880.91;;;23.72;36.07
59767;BME280;46248;58.364;25.582;2023-05-23T14:06:06;100885.03;;;23.93;36.00
59767;BME280;46248;58.364;25.582;2023-05-23T14:09:28;100893.84;;;24.11;35.54
59767;BME280;46248;58.364;25.582;2023-05-23T14:12:50;100885.19;;;24.17;34.89
59767;BME280;46248;58.364;25.582;2023-05-23T14:16:12;100878.22;;;24.25;35.06
59767;BME280;46248;58.364;25.582;2023-05-23T14:19:36;100883.53;;;24.42;34.84
59767;BME280;46248;58.364;25.582;2023-05-23T14:22:58;100876.38;;;24.51;35.12
59767;BME280;46248;58.364;25.582;2023-05-23T14:26:20;100885.41;;;24.50;33.78
59767;BME280;46248;58.364;25.582;2023-05-23T14:29:43;100885.25;;;24.52;34.60
59767;BME280;46248;58.364;25.582;2023-05-23T14:33:06;100874.69;;;24.50;34.38
59767;BME280;46248;58.364;25.582;2023-05-23T14:36:32;100859.47;;;24.51;34.56
59767;BME280;46248;58.364;25.582;2023-05-23T14:39:56;100879.34;;;24.82;33.73
59767;BME280;46248;58.364;25.582;2023-05-23T14:43:18;100887.88;;;24.86;32.74
59767;BME280;46248;58.364;25.582;2023-05-23T14:46:40;100885.84;;;24.80;33.29
59767;BME280;46248;58.364;25.582;2023-05-23T14:50:09;100886.78;;;24.62;33.30
59767;BME280;46248;58.364;25.582;2023-05-23T14:53:32;100886.28;;;24.59;32.19
59767;BME280;46248;58.364;25.582;2023-05-23T14:56:54;100883.41;;;24.52;33.54
59767;BME280;46248;58.364;25.582;2023-05-23T15:00:18;100882.06;;;24.56;32.90
59767;BME280;46248;58.364;25.582;2023-05-23T15:03:40;100878.69;;;24.46;32.55
59767;BME280;46248;58.364;25.582;2023-05-23T15:07:04;100863.13;;;24.15;31.73
59767;BME280;46248;58.364;25.582;2023-05-23T15:10:27;100887.41;;;24.22;31.96
59767;BME280;46248;58.364;25.582;2023-05-23T15:13:49;100884.47;;;24.07;32.26
59767;BME280;46248;58.364;25.582;2023-05-23T15:17:11;100887.47;;;24.04;32.37
59767;BME280;46248;58.364;25.582;2023-05-23T15:20:39;100887.50;;;23.86;32.69
59767;BME280;46248;58.364;25.582;2023-05-23T15:24:01;100865.50;;;23.57;33.14
59767;BME280;46248;58.364;25.582;2023-05-23T15:27:25;100881.41;;;23.58;32.97
59767;BME280;46248;58.364;25.582;2023-05-23T15:30:47;100879.97;;;23.46;33.69
59767;BME280;46248;58.364;25.582;2023-05-23T15:34:09;100875.91;;;23.42;33.75
59767;BME280;46248;58.364;25.582;2023-05-23T15:37:31;100874.22;;;23.41;33.37
59767;BME280;46248;58.364;25.582;2023-05-23T15:40:53;100871.88;;;23.38;33.47
59767;BME280;46248;58.364;25.582;2023-05-23T15:44:17;100869.06;;;23.39;33.75
59767;BME280;46248;58.364;25.582;2023-05-23T15:47:40;100868.66;;;23.34;34.23
59767;BME280;46248;58.364;25.582;2023-05-23T15:51:02;100861.03;;;23.57;34.95
59767;BME280;46248;58.364;25.582;2023-05-23T15:54:24;100868.88;;;23.76;33.63
59767;BME280;46248;58.364;25.582;2023-05-23T15:57:46;100859.06;;;24.11;34.58
59767;BME280;46248;58.364;25.582;2023-05-23T16:01:09;100838.72;;;25.03;33.57
59767;BME280;46248;58.364;25.582;2023-05-23T16:04:31;100858.19;;;25.95;32.01
59767;BME280;46248;58.364;25.582;2023-05-23T16:07:55;100858.59;;;26.32;31.03
59767;BME280;46248;58.364;25.582;2023-05-23T16:11:17;100845.22;;;26.23;31.30
59767;BME280;46248;58.364;25.582;2023-05-23T16:14:39;100857.50;;;26.10;31.66
59767;BME280;46248;58.364;25.582;2023-05-23T16:18:03;100859.66;;;26.14;30.67
59767;BME280;46248;58.364;25.582;2023-05-23T16:21:25;100859.00;;;26.12;30.80
59767;BME280;46248;58.364;25.582;2023-05-23T16:24:47;100860.22;;;25.85;30.91
59767;BME280;46248;58.364;25.582;2023-05-23T16:28:09;100868.59;;;25.57;31.72
59767;BME280;46248;58.364;25.582;2023-05-23T16:31:30;100857.34;;;25.29;31.94
59767;BME280;46248;58.364;25.582;2023-05-23T16:34:54;100862.69;;;25.13;32.39
59767;BME280;46248;58.364;25.582;2023-05-23T16:38:16;100868.47;;;24.92;32.68
59767;BME280;46248;58.364;25.582;2023-05-23T16:41:37;100863.78;;;24.86;32.92
59767;BME280;46248;58.364;25.582;2023-05-23T16:45:00;100859.50;;;25.09;32.93
59767;BME280;46248;58.364;25.582;2023-05-23T16:48:22;100868.41;;;25.26;32.64
59767;BME280;46248;58.364;25.582;2023-05-23T16:51:45;100867.72;;;25.32;33.09
59767;BME280;46248;58.364;25.582;2023-05-23T16:55:08;100867.94;;;25.64;32.98
59767;BME280;46248;58.364;25.582;2023-05-23T16:58:29;100870.59;;;25.47;33.50
59767;BME280;46248;58.364;25.582;2023-05-23T17:01:55;100871.63;;;25.46;33.61
59767;BME280;46248;58.364;25.582;2023-05-23T17:05:17;100873.28;;;25.55;33.58
59767;BME280;46248;58.364;25.582;2023-05-23T17:08:40;100878.97;;;25.77;33.22
59767;BME280;46248;58.364;25.582;2023-05-23T17:12:02;100879.84;;;25.86;33.64
59767;BME280;46248;58.364;25.582;2023-05-23T17:15:24;100877.31;;;26.00;33.84
59767;BME280;46248;58.364;25.582;2023-05-23T17:18:47;100885.50;;;26.07;33.83
59767;BME280;46248;58.364;25.582;2023-05-23T17:22:08;100883.34;;;26.02;34.00
59767;BME280;46248;58.364;25.582;2023-05-23T17:25:32;100880.13;;;26.07;33.87
59767;BME280;46248;58.364;25.582;2023-05-23T17:28:54;100885.69;;;26.06;33.72
59767;BME280;46248;58.364;25.582;2023-05-23T17:32:16;100886.19;;;26.01;33.84
59767;BME280;46248;58.364;25.582;2023-05-23T17:35:39;100882.34;;;25.95;34.19
59767;BME280;46248;58.364;25.582;2023-05-23T17:39:02;100887.72;;;25.54;34.17
59767;BME280;46248;58.364;25.582;2023-05-23T17:42:25;100881.22;;;24.98;34.68
59767;BME280;46248;58.364;25.582;2023-05-23T17:45:48;100849.81;;;24.58;35.41
59767;BME280;46248;58.364;25.582;2023-05-23T17:49:09;100878.56;;;24.56;35.65
59767;BME280;46248;58.364;25.582;2023-05-23T17:52:32;100867.06;;;24.37;35.92
59767;BME280;46248;58.364;25.582;2023-05-23T17:55:53;100866.00;;;24.22;36.28
59767;BME280;46248;58.364;25.582;2023-05-23T17:59:17;100873.44;;;24.10;36.32
59767;BME280;46248;58.364;25.582;2023-05-23T18:02:39;100878.28;;;24.07;36.29